Tulsa, OK

1:42 AM CST on January 18, 2018 (GMT -0600)
Maple Ridge | | Change Station

Elev 738 ft 36.14 °N, 95.98 °W | Updated 13 minutes ago

Clear
Clear
21.8 °F
Feels Like 22 °F
N
2.0
Wind Variable Wind from South
Gusts 4.0 mph

Today
High -- | Low -- °F
--% Chance of Precip.
Yesterday
High -- | Low -- °F
Precip. -- in
Pressure 30.53 in
Visibility 10.0 miles
Clouds Clear
Windchill 22 °F
Dew Point 9 °F
Humidity 57%
Rainfall 0.00 in
Snow Depth Not available.
7:33 AM 5:36 PM
New Moon, 1% visible
METAR KTUL 180653Z 18006KT 10SM CLR M07/M13 A3051 RMK AO2 SLP339 T10671133
Pressure 30.53 in
Visibility 10.0 miles
Clouds Clear
Windchill 22 °F
Dew Point 9 °F
Humidity 57%
Rainfall 0.00 in
Snow Depth Not available.
7:33 AM 5:36 PM
New Moon, 1% visible
METAR KTUL 180653Z 18006KT 10SM CLR M07/M13 A3051 RMK AO2 SLP339 T10671133

Get Severe Weather Alerts

Thanks for signing up!

Be on the lookout for a verification email in your inbox.

You'll start receiving the daily forecast at 6 AM.

×

10-Day Weather Forecast

Almanac

Astronomy

Jan. 18, 2018 Rise Set
Actual Time
Civil Twilight
Nautical Twilight
Astronomical Twilight
Moon
Length of Visible Light
Length of Day
Tomorrow will be .
, % of the Moon is Illuminated

Today's Extremes

State Highs State Lows

Community

WunderPhotos

Category 6

Welcome to Category 6. This is the collective home for Weather Underground's featured writeups by Dr. Jeff Masters (right), Bob Henson (left), Chris Burt, and other regular contributors.

Nearby

Air Quality

  Air Quality AQ Index Pollutant
Not available.

Snow Depth

Station Depth Elevation

Earthquake Activity

City Distance Mag. Time & Date
Minimum magnitude displayed is 2.5.

Coastal Water Temperatures

Place Temperature

Stations

Nearby Weather Stations

Station Location Temp. Windchill Dew Point Humidity Wind Precip. Elev Updated Type
                   

Watches & Warnings

There are currently no watches in effect.